createdAt,value
2019-03-03T00:00:45.150Z,25.37
2019-03-03T00:03:13.699Z,24.10
2019-03-03T00:05:42.405Z,23.43
2019-03-03T00:08:11.055Z,22.60
2019-03-03T00:10:39.985Z,22.00
2019-03-03T00:13:11.841Z,23.40
2019-03-03T00:15:40.541Z,24.00
2019-03-03T00:18:09.163Z,23.60
2019-03-03T00:20:37.839Z,20.50
2019-03-03T00:23:06.419Z,21.30
2019-03-03T00:25:36.818Z,21.77
2019-03-03T00:28:05.517Z,20.97
2019-03-03T00:30:34.714Z,20.87
2019-03-03T00:33:03.293Z,19.27
2019-03-03T00:35:31.965Z,19.33
2019-03-03T00:38:02.175Z,20.17
2019-03-03T00:40:49.013Z,18.63
2019-03-03T00:43:28.228Z,19.10
2019-03-03T00:46:01.421Z,18.93
2019-03-03T00:48:40.751Z,19.13
2019-03-03T00:51:16.690Z,18.17
2019-03-03T00:54:03.618Z,19.53
2019-03-03T00:56:36.759Z,18.37
2019-03-03T00:59:13.401Z,19.00
2019-03-03T01:01:43.917Z,17.80
2019-03-03T01:04:30.007Z,17.03
2019-03-03T01:07:00.699Z,16.10
2019-03-03T01:09:49.431Z,17.70
2019-03-03T01:12:31.683Z,16.17
2019-03-03T01:15:11.291Z,16.97
2019-03-03T01:17:56.630Z,14.13
2019-03-03T01:20:27.051Z,16.70
2019-03-03T01:22:57.294Z,14.87
2019-03-03T01:25:25.974Z,16.67
2019-03-03T01:27:54.593Z,14.60
2019-03-03T01:30:23.639Z,15.37
2019-03-03T01:32:52.332Z,8.40
2019-03-03T01:35:21.453Z,15.50
2019-03-03T01:37:50.027Z,15.50
2019-03-03T01:40:19.042Z,16.93
2019-03-03T01:42:47.605Z,14.73
2019-03-03T01:45:16.310Z,14.67
2019-03-03T01:47:45.191Z,16.43
2019-03-03T01:50:14.493Z,13.93
2019-03-03T01:52:43.667Z,13.40
2019-03-03T01:55:14.971Z,14.63
2019-03-03T01:57:43.893Z,14.03
2019-03-03T02:00:24.223Z,12.37
2019-03-03T02:02:53.968Z,13.93
2019-03-03T02:05:22.847Z,14.83
2019-03-03T02:07:51.471Z,13.43
2019-03-03T02:10:24.737Z,13.10
2019-03-03T02:12:53.599Z,13.60
2019-03-03T02:15:22.923Z,13.97
2019-03-03T02:17:51.655Z,13.33
2019-03-03T02:20:20.703Z,11.17
2019-03-03T02:22:49.326Z,13.73
2019-03-03T02:25:18.486Z,14.13
2019-03-03T02:27:47.043Z,11.70
2019-03-03T02:30:18.620Z,13.23
2019-03-03T02:32:47.820Z,9.57
2019-03-03T02:35:17.126Z,13.30
2019-03-03T02:37:46.245Z,10.60
2019-03-03T02:40:17.821Z,12.00
2019-03-03T02:42:46.448Z,11.73
2019-03-03T02:45:17.309Z,13.07
2019-03-03T02:47:46.207Z,12.37
2019-03-03T02:50:16.752Z,10.67
2019-03-03T02:52:45.792Z,10.00
2019-03-03T02:55:16.020Z,11.27
2019-03-03T02:57:44.653Z,10.33
2019-03-03T03:00:18.645Z,11.53
2019-03-03T03:02:51.774Z,10.60
2019-03-03T03:05:23.922Z,10.07
2019-03-03T03:08:00.184Z,8.87
2019-03-03T03:10:39.686Z,7.53
2019-03-03T03:13:15.783Z,9.40
2019-03-03T03:15:49.140Z,10.03
2019-03-03T03:18:28.242Z,9.30
2019-03-03T03:20:58.591Z,9.93
2019-03-03T03:23:28.788Z,9.80
2019-03-03T03:26:17.270Z,8.73
2019-03-03T03:28:47.457Z,10.90
2019-03-03T03:31:17.919Z,8.67
2019-03-03T03:33:48.103Z,8.40
2019-03-03T03:36:18.413Z,8.50
2019-03-03T03:38:48.637Z,8.53
2019-03-03T03:41:19.262Z,8.77
2019-03-03T03:43:55.212Z,8.27
2019-03-03T03:46:37.553Z,7.67
2019-03-03T03:49:10.487Z,8.53
2019-03-03T03:51:56.161Z,8.50
2019-03-03T03:54:34.838Z,9.37
2019-03-03T03:57:12.363Z,8.70
2019-03-03T03:59:42.706Z,7.53
2019-03-03T04:02:31.227Z,8.50
2019-03-03T04:05:04.000Z,7.30
2019-03-03T04:07:40.260Z,7.53
2019-03-03T04:10:16.427Z,8.17
2019-03-03T04:13:03.454Z,7.77
2019-03-03T04:15:49.794Z,6.60
2019-03-03T04:18:20.219Z,7.27
2019-03-03T04:20:53.448Z,6.57
2019-03-03T04:23:23.823Z,6.87
2019-03-03T04:25:54.006Z,6.13
2019-03-03T04:28:33.452Z,7.37
2019-03-03T04:31:21.618Z,6.80
2019-03-03T04:33:52.167Z,6.30
2019-03-03T04:36:34.622Z,6.10
2019-03-03T04:39:11.156Z,5.80
2019-03-03T04:41:47.552Z,5.73
2019-03-03T04:44:17.993Z,5.00
2019-03-03T04:46:54.375Z,3.83
2019-03-03T04:49:24.832Z,5.57
2019-03-03T04:52:03.556Z,5.50
2019-03-03T04:54:50.374Z,5.27
2019-03-03T04:57:20.570Z,4.87
2019-03-03T05:00:05.922Z,4.17
2019-03-03T05:02:36.232Z,3.17
2019-03-03T05:05:09.152Z,13.17
2019-03-03T05:07:51.847Z,4.70
2019-03-03T05:10:25.270Z,6.77
2019-03-03T05:13:06.117Z,4.90
2019-03-03T05:15:47.959Z,5.63
2019-03-03T05:18:18.282Z,4.67
2019-03-03T05:20:50.924Z,4.20
2019-03-03T05:23:19.895Z,4.20
2019-03-03T05:25:48.461Z,4.17
2019-03-03T05:28:17.126Z,3.90
2019-03-03T05:30:45.676Z,4.03
2019-03-03T05:33:14.227Z,4.50
2019-03-03T05:35:42.941Z,4.10
2019-03-03T05:38:11.503Z,5.00
2019-03-03T05:40:40.300Z,4.10
2019-03-03T05:43:09.198Z,4.67
2019-03-03T05:45:37.910Z,3.33
2019-03-03T05:48:06.460Z,4.13
2019-03-03T05:50:36.801Z,4.83
2019-03-03T05:53:05.355Z,4.50
2019-03-03T05:55:34.243Z,4.37
2019-03-03T05:58:02.811Z,4.30
2019-03-03T06:00:31.944Z,4.57
2019-03-03T06:03:00.500Z,4.20
2019-03-03T06:05:29.250Z,3.70
2019-03-03T06:07:57.811Z,4.30
2019-03-03T06:10:26.769Z,4.30
2019-03-03T06:12:55.326Z,4.70
2019-03-03T06:15:23.878Z,4.40
2019-03-03T06:17:52.555Z,4.67
2019-03-03T06:20:21.244Z,4.43
2019-03-03T06:22:49.812Z,4.80
2019-03-03T06:25:18.476Z,3.87
2019-03-03T06:27:47.032Z,5.10
2019-03-03T06:30:16.617Z,4.17
2019-03-03T06:32:45.255Z,4.07
2019-03-03T06:35:14.075Z,4.03
2019-03-03T06:37:42.944Z,5.00
2019-03-03T06:40:12.053Z,5.07
2019-03-03T06:42:40.601Z,5.40
2019-03-03T06:45:12.339Z,5.47
2019-03-03T06:47:41.120Z,3.97
2019-03-03T06:50:12.110Z,3.37
2019-03-03T06:52:40.669Z,4.77
2019-03-03T06:55:14.175Z,4.77
2019-03-03T06:57:42.800Z,5.30
2019-03-03T07:00:16.275Z,3.97
2019-03-03T07:02:45.374Z,4.73
2019-03-03T07:05:14.098Z,4.93
2019-03-03T07:07:42.937Z,5.23
2019-03-03T07:10:13.438Z,4.87
2019-03-03T07:12:42.376Z,5.83
2019-03-03T07:15:13.504Z,5.10
2019-03-03T07:17:42.057Z,4.57
2019-03-03T07:20:12.677Z,5.67
2019-03-03T07:22:41.822Z,5.40
2019-03-03T07:25:14.403Z,5.13
2019-03-03T07:27:43.277Z,5.97
2019-03-03T07:30:18.482Z,6.30
2019-03-03T07:32:48.962Z,5.40
2019-03-03T07:35:17.522Z,5.60
2019-03-03T07:37:46.316Z,6.03
2019-03-03T07:40:14.956Z,7.57
2019-03-03T07:42:43.791Z,5.63
2019-03-03T07:45:14.796Z,5.87
2019-03-03T07:47:43.613Z,5.07
2019-03-03T07:50:12.499Z,4.50
2019-03-03T07:52:41.062Z,5.10
2019-03-03T07:55:11.534Z,4.93
2019-03-03T07:57:44.420Z,3.73
2019-03-03T08:00:17.900Z,5.23
2019-03-03T08:02:46.934Z,5.27
2019-03-03T08:05:15.718Z,4.27
2019-03-03T08:07:44.300Z,4.80
2019-03-03T08:10:16.740Z,4.80
2019-03-03T08:12:45.508Z,4.57
2019-03-03T08:15:19.427Z,4.70
2019-03-03T08:17:48.048Z,2.80
2019-03-03T08:20:17.031Z,5.00
2019-03-03T08:22:45.600Z,4.77
2019-03-03T08:25:15.026Z,4.30
2019-03-03T08:27:44.023Z,4.30
2019-03-03T08:30:20.229Z,4.27
2019-03-03T08:32:48.777Z,4.27
2019-03-03T08:35:23.461Z,4.60
2019-03-03T08:37:52.078Z,3.60
2019-03-03T08:40:21.038Z,4.10
2019-03-03T08:43:09.199Z,4.07
2019-03-03T08:45:56.132Z,4.33
2019-03-03T08:48:29.070Z,4.27
2019-03-03T08:51:04.967Z,4.63
2019-03-03T08:53:51.712Z,5.20
2019-03-03T08:56:22.040Z,4.03
2019-03-03T08:59:07.570Z,3.80
2019-03-03T09:01:50.058Z,3.17
2019-03-03T09:04:23.192Z,3.00
2019-03-03T09:06:53.512Z,4.40
2019-03-03T09:09:23.776Z,4.30
2019-03-03T09:12:06.308Z,4.00
2019-03-03T09:14:42.462Z,3.70
2019-03-03T09:17:19.223Z,3.50
2019-03-03T09:19:52.302Z,4.23
2019-03-03T09:22:38.379Z,4.70
2019-03-03T09:25:22.068Z,4.30
2019-03-03T09:27:58.598Z,3.63
2019-03-03T09:30:34.534Z,4.47
2019-03-03T09:33:05.216Z,3.60
2019-03-03T09:35:35.430Z,3.80
2019-03-03T09:38:11.684Z,4.33
2019-03-03T09:40:47.686Z,3.73
2019-03-03T09:43:18.021Z,3.20
2019-03-03T09:45:54.056Z,4.23
2019-03-03T09:48:24.812Z,3.10
2019-03-03T09:51:00.829Z,3.57
2019-03-03T09:53:39.980Z,3.83
2019-03-03T09:56:10.194Z,3.20
2019-03-03T09:58:56.662Z,3.67
2019-03-03T10:01:29.692Z,4.23
2019-03-03T10:04:03.185Z,4.60
2019-03-03T10:06:52.647Z,4.60
2019-03-03T10:09:25.672Z,5.60
2019-03-03T10:11:55.948Z,3.40
2019-03-03T10:14:35.604Z,3.63
2019-03-03T10:17:12.665Z,4.33
2019-03-03T10:19:46.080Z,2.63
2019-03-03T10:22:21.894Z,3.17
2019-03-03T10:24:55.218Z,3.40
2019-03-03T10:27:25.410Z,3.20
2019-03-03T10:29:55.600Z,4.03
2019-03-03T10:32:25.924Z,3.33
2019-03-03T10:35:12.412Z,3.60
2019-03-03T10:37:46.434Z,3.70
2019-03-03T10:40:28.798Z,3.43
2019-03-03T10:43:07.776Z,3.03
2019-03-03T10:45:46.642Z,3.43
2019-03-03T10:48:22.505Z,2.60
2019-03-03T10:50:52.954Z,2.90
2019-03-03T10:53:25.906Z,2.40
2019-03-03T10:55:56.774Z,2.60
2019-03-03T10:58:35.928Z,2.60
2019-03-03T11:01:06.628Z,2.30
2019-03-03T11:03:39.606Z,3.50
2019-03-03T11:06:12.598Z,2.83
2019-03-03T11:08:48.629Z,2.87
2019-03-03T11:11:19.884Z,3.37
2019-03-03T11:13:57.341Z,2.40
2019-03-03T11:16:37.057Z,3.00
2019-03-03T11:19:07.437Z,2.97
2019-03-03T11:21:40.351Z,3.10
2019-03-03T11:24:10.894Z,2.97
2019-03-03T11:26:49.894Z,3.20
2019-03-03T11:29:29.166Z,2.80
2019-03-03T11:32:02.244Z,3.57
2019-03-03T11:34:38.554Z,2.57
2019-03-03T11:37:14.887Z,3.70
2019-03-03T11:40:02.063Z,2.77
2019-03-03T11:42:35.617Z,3.00
2019-03-03T11:45:13.368Z,3.00
2019-03-03T11:48:04.113Z,3.30
2019-03-03T11:50:47.047Z,2.60
2019-03-03T11:53:17.623Z,3.40
2019-03-03T11:55:48.222Z,2.60
2019-03-03T11:58:30.847Z,2.90
2019-03-03T12:01:04.191Z,3.23
2019-03-03T12:03:46.390Z,2.90
2019-03-03T12:06:26.039Z,3.10
2019-03-03T12:09:11.207Z,2.70
2019-03-03T12:11:44.378Z,4.90
2019-03-03T12:14:15.129Z,2.30
2019-03-03T12:17:00.339Z,2.53
2019-03-03T12:19:36.701Z,2.60
2019-03-03T12:22:08.851Z,4.10
2019-03-03T12:24:57.464Z,3.20
2019-03-03T12:27:27.671Z,2.53
2019-03-03T12:30:09.710Z,3.23
2019-03-03T12:32:39.995Z,3.43
2019-03-03T12:35:10.771Z,2.50
2019-03-03T12:37:53.326Z,3.17
2019-03-03T12:40:32.435Z,3.40
2019-03-03T12:43:05.133Z,3.17
2019-03-03T12:45:53.835Z,2.90
2019-03-03T12:48:36.219Z,2.90
2019-03-03T12:51:22.417Z,2.77
2019-03-03T12:53:55.907Z,3.30
2019-03-03T12:56:38.403Z,2.50
2019-03-03T12:59:14.552Z,3.10
2019-03-03T13:01:47.255Z,3.17
2019-03-03T13:04:23.423Z,3.50
2019-03-03T13:07:03.080Z,1.90
2019-03-03T13:09:39.082Z,3.10
2019-03-03T13:12:20.958Z,3.10
2019-03-03T13:14:53.684Z,4.13
2019-03-03T13:17:47.981Z,3.33
2019-03-03T13:20:20.096Z,3.30
2019-03-03T13:22:55.799Z,4.33
2019-03-03T13:25:26.270Z,6.37
2019-03-03T13:28:12.359Z,2.20
2019-03-03T13:30:59.275Z,3.53
2019-03-03T13:33:35.616Z,3.23
2019-03-03T13:36:13.031Z,3.33
2019-03-03T13:38:46.053Z,2.93
2019-03-03T13:41:34.774Z,4.00
2019-03-03T13:44:03.748Z,3.07
2019-03-03T13:46:32.401Z,2.70
2019-03-03T13:49:01.102Z,3.33
2019-03-03T13:51:30.338Z,2.90
2019-03-03T13:53:58.979Z,3.37
2019-03-03T13:56:27.739Z,3.53
2019-03-03T13:58:57.139Z,3.30
2019-03-03T14:01:26.306Z,3.80
2019-03-03T14:03:55.321Z,3.27
2019-03-03T14:06:25.703Z,3.67
2019-03-03T14:08:54.807Z,3.33
2019-03-03T14:11:29.913Z,2.73
2019-03-03T14:13:59.071Z,3.67
2019-03-03T14:16:29.137Z,2.83
2019-03-03T14:18:57.959Z,3.03
2019-03-03T14:21:27.052Z,2.80
2019-03-03T14:23:55.619Z,4.03
2019-03-03T14:26:24.580Z,3.40
2019-03-03T14:28:55.264Z,5.23
2019-03-03T14:31:23.855Z,2.83
2019-03-03T14:33:52.425Z,2.93
2019-03-03T14:36:21.429Z,3.93
2019-03-03T14:38:49.996Z,2.40
2019-03-03T14:41:20.239Z,4.23
2019-03-03T14:43:48.817Z,3.13
2019-03-03T14:46:18.000Z,4.00
2019-03-03T14:48:46.887Z,3.00
2019-03-03T14:51:16.590Z,4.07
2019-03-03T14:53:45.295Z,3.43
2019-03-03T14:56:14.003Z,3.17
2019-03-03T14:58:43.700Z,4.10
2019-03-03T15:01:12.333Z,3.00
2019-03-03T15:03:40.981Z,3.37
2019-03-03T15:06:09.957Z,2.93
2019-03-03T15:08:38.814Z,3.97
2019-03-03T15:11:07.746Z,3.10
2019-03-03T15:13:36.315Z,3.20
2019-03-03T15:16:05.315Z,3.30
2019-03-03T15:18:34.013Z,3.80
2019-03-03T15:21:02.790Z,2.63
2019-03-03T15:23:34.299Z,3.80
2019-03-03T15:26:03.342Z,2.93
2019-03-03T15:28:31.921Z,5.90
2019-03-03T15:31:00.771Z,3.53
2019-03-03T15:33:29.385Z,4.27
2019-03-03T15:35:58.113Z,4.60
2019-03-03T15:38:26.677Z,3.03
2019-03-03T15:40:55.450Z,2.87
2019-03-03T15:43:24.074Z,4.00
2019-03-03T15:45:52.786Z,4.07
2019-03-03T15:48:21.371Z,4.00
2019-03-03T15:50:50.509Z,4.13
2019-03-03T15:53:19.098Z,3.17
2019-03-03T15:55:48.253Z,3.30
2019-03-03T15:58:16.806Z,3.40
2019-03-03T16:00:45.749Z,2.90
2019-03-03T16:03:14.394Z,3.33
2019-03-03T16:05:43.079Z,3.57
2019-03-03T16:08:11.715Z,3.00
2019-03-03T16:10:40.703Z,4.40
2019-03-03T16:13:09.343Z,3.10
2019-03-03T16:15:38.054Z,4.40
2019-03-03T16:18:06.692Z,4.03
2019-03-03T16:20:35.377Z,3.20
2019-03-03T16:23:03.993Z,3.70
2019-03-03T16:25:33.005Z,3.80
2019-03-03T16:28:01.648Z,3.60
2019-03-03T16:30:30.286Z,3.80
2019-03-03T16:32:59.017Z,4.27
2019-03-03T16:35:27.789Z,3.43
2019-03-03T16:37:56.357Z,3.80
2019-03-03T16:40:26.529Z,4.50
2019-03-03T16:42:55.234Z,4.03
2019-03-03T16:45:24.159Z,4.30
2019-03-03T16:47:52.805Z,3.43
2019-03-03T16:50:23.163Z,2.90
2019-03-03T16:52:52.069Z,3.90
2019-03-03T16:55:21.571Z,3.60
2019-03-03T16:57:51.058Z,3.10
2019-03-03T17:00:27.743Z,2.90
2019-03-03T17:02:56.383Z,3.40
2019-03-03T17:05:29.482Z,3.30
2019-03-03T17:07:58.262Z,3.30
2019-03-03T17:10:26.827Z,4.10
2019-03-03T17:12:55.875Z,3.70
2019-03-03T17:15:26.007Z,3.97
2019-03-03T17:17:54.831Z,3.70
2019-03-03T17:20:23.531Z,3.43
2019-03-03T17:22:52.350Z,2.83
2019-03-03T17:25:27.911Z,4.40
2019-03-03T17:27:57.005Z,4.10
2019-03-03T17:30:27.872Z,3.30
2019-03-03T17:32:56.883Z,3.97
2019-03-03T17:35:25.448Z,3.87
2019-03-03T17:37:56.396Z,4.70
2019-03-03T17:40:28.626Z,4.27
2019-03-03T17:42:57.919Z,3.93
2019-03-03T17:45:26.595Z,4.77
2019-03-03T17:47:55.307Z,3.90
2019-03-03T17:50:28.635Z,3.77
2019-03-03T17:52:58.600Z,3.40
2019-03-03T17:55:27.299Z,4.83
2019-03-03T17:57:57.402Z,3.63
2019-03-03T18:00:28.952Z,3.57
2019-03-03T18:02:57.883Z,3.73
2019-03-03T18:05:26.492Z,3.60
2019-03-03T18:07:55.476Z,3.30
2019-03-03T18:10:24.271Z,3.97
2019-03-03T18:12:53.142Z,3.90
2019-03-03T18:15:21.806Z,5.27
2019-03-03T18:17:50.772Z,4.17
2019-03-03T18:20:21.561Z,3.90
2019-03-03T18:22:50.413Z,3.70
2019-03-03T18:25:22.115Z,5.50
2019-03-03T18:27:51.075Z,3.80
2019-03-03T18:30:28.911Z,4.30
2019-03-03T18:32:57.703Z,4.47
2019-03-03T18:35:26.471Z,2.90
2019-03-03T18:37:55.891Z,2.83
2019-03-03T18:40:25.729Z,3.33
2019-03-03T18:42:54.848Z,4.13
2019-03-03T18:45:24.179Z,3.53
2019-03-03T18:47:52.823Z,3.60
2019-03-03T18:50:23.856Z,3.60
2019-03-03T18:52:53.021Z,3.10
2019-03-03T18:55:21.593Z,3.50
2019-03-03T18:57:50.856Z,3.33
2019-03-03T19:00:22.748Z,3.60
2019-03-03T19:02:52.144Z,3.70
2019-03-03T19:05:21.194Z,3.63
2019-03-03T19:07:50.008Z,3.17
2019-03-03T19:10:30.105Z,3.77
2019-03-03T19:12:58.873Z,3.80
2019-03-03T19:15:27.834Z,3.20
2019-03-03T19:17:59.900Z,6.60
2019-03-03T19:20:28.707Z,9.57
2019-03-03T19:22:57.795Z,2.70
2019-03-03T19:25:26.874Z,3.10
2019-03-03T19:27:55.539Z,3.33
2019-03-03T19:30:28.751Z,3.40
2019-03-03T19:33:15.570Z,3.23
2019-03-03T19:35:44.326Z,2.87
2019-03-03T19:38:13.163Z,2.10
2019-03-03T19:40:41.949Z,3.37
2019-03-03T19:43:10.502Z,2.77
2019-03-03T19:45:41.554Z,2.67
2019-03-03T19:48:10.932Z,3.17
2019-03-03T19:50:40.690Z,2.23
2019-03-03T19:53:09.401Z,2.73
2019-03-03T19:55:38.220Z,2.90
2019-03-03T19:58:06.991Z,3.37
2019-03-03T20:00:39.141Z,3.00
2019-03-03T20:03:08.491Z,2.13
2019-03-03T20:05:37.166Z,2.47
2019-03-03T20:08:06.382Z,2.93
2019-03-03T20:10:35.592Z,2.70
2019-03-03T20:13:04.561Z,3.13
2019-03-03T20:15:33.887Z,2.30
2019-03-03T20:18:03.025Z,2.50
2019-03-03T20:20:31.763Z,2.93
2019-03-03T20:23:00.505Z,3.60
2019-03-03T20:25:29.599Z,3.07
2019-03-03T20:27:58.224Z,2.53
2019-03-03T20:30:26.922Z,2.60
2019-03-03T20:32:55.676Z,2.53
2019-03-03T20:35:25.042Z,2.20
2019-03-03T20:37:53.674Z,3.50
2019-03-03T20:40:24.085Z,3.40
2019-03-03T20:42:53.818Z,2.77
2019-03-03T20:45:27.187Z,2.13
2019-03-03T20:47:56.105Z,3.73
2019-03-03T20:50:25.225Z,2.30
2019-03-03T20:52:54.921Z,2.80
2019-03-03T20:55:28.181Z,2.27
2019-03-03T20:57:56.985Z,2.57
2019-03-03T21:00:27.956Z,2.27
2019-03-03T21:02:57.414Z,3.13
2019-03-03T21:05:26.107Z,2.60
2019-03-03T21:07:55.023Z,2.23
2019-03-03T21:10:27.914Z,6.77
2019-03-03T21:12:56.904Z,2.13
2019-03-03T21:15:25.469Z,2.80
2019-03-03T21:17:54.244Z,3.17
2019-03-03T21:20:23.942Z,2.10
2019-03-03T21:22:52.774Z,3.97
2019-03-03T21:25:21.477Z,2.13
2019-03-03T21:27:50.423Z,3.00
2019-03-03T21:30:21.797Z,2.53
2019-03-03T21:32:51.095Z,2.50
2019-03-03T21:35:19.932Z,2.63
2019-03-03T21:37:49.107Z,2.30
2019-03-03T21:40:22.919Z,3.50
2019-03-03T21:42:51.570Z,3.10
2019-03-03T21:45:25.994Z,2.50
2019-03-03T21:47:55.501Z,4.37
2019-03-03T21:50:26.615Z,2.73
2019-03-03T21:52:55.807Z,2.80
2019-03-03T21:55:24.855Z,1.87
2019-03-03T21:57:53.505Z,3.10
2019-03-03T22:00:31.013Z,1.83
2019-03-03T22:02:59.571Z,1.60
2019-03-03T22:05:28.433Z,3.50
2019-03-03T22:07:57.278Z,2.90
2019-03-03T22:10:34.974Z,5.23
2019-03-03T22:13:05.868Z,3.40
2019-03-03T22:15:36.035Z,2.30
2019-03-03T22:18:06.685Z,2.60
2019-03-03T22:20:35.387Z,2.60
2019-03-03T22:23:04.075Z,2.70
2019-03-03T22:25:33.025Z,2.10
2019-03-03T22:28:01.574Z,3.00
2019-03-03T22:30:30.606Z,2.17
2019-03-03T22:32:59.243Z,2.60
2019-03-03T22:35:27.930Z,2.33
2019-03-03T22:37:56.554Z,3.23
2019-03-03T22:40:25.777Z,3.00
2019-03-03T22:42:54.371Z,2.43
2019-03-03T22:45:23.347Z,2.60
2019-03-03T22:47:52.075Z,1.90
2019-03-03T22:50:21.508Z,2.40
2019-03-03T22:52:50.818Z,3.07
2019-03-03T22:55:20.729Z,2.40
2019-03-03T22:57:49.413Z,2.03
2019-03-03T23:00:43.495Z,2.57
2019-03-03T23:03:14.413Z,2.80
2019-03-03T23:05:58.312Z,2.70
2019-03-03T23:08:36.189Z,2.93
2019-03-03T23:11:10.760Z,2.77
2019-03-03T23:13:51.786Z,2.80
2019-03-03T23:16:38.461Z,2.53
2019-03-03T23:19:15.771Z,2.77
2019-03-03T23:21:47.530Z,2.40
2019-03-03T23:24:46.647Z,1.93
2019-03-03T23:27:15.384Z,1.90
2019-03-03T23:29:44.009Z,2.90
2019-03-03T23:32:12.995Z,2.43
2019-03-03T23:34:41.565Z,2.33
2019-03-03T23:37:10.230Z,2.83
2019-03-03T23:39:38.797Z,2.87
2019-03-03T23:42:07.757Z,2.00
2019-03-03T23:44:36.299Z,2.60
2019-03-03T23:47:04.937Z,3.20
2019-03-03T23:49:34.003Z,2.40
2019-03-03T23:52:02.943Z,3.00
2019-03-03T23:54:31.613Z,3.63
2019-03-03T23:57:00.192Z,3.23
2019-03-03T23:59:28.859Z,1.90
